Time;durP1;ratioP1;P1;durP2;ratioP2;P2;SDS_P1;SDS_P2;PMS_P1;PMS_P2;Temp;Humidity;BMP_temperature;BMP_pressure;BME280_temperature;BME280_humidity;BME280_pressure;Samples;Min_cycle;Max_cycle;Signal;HPM_P1;HPM_P2
2023/12/27 00:02:00;;;;;;;20.20;2.65;;;;;;;2.59;100.00;102110.25;4842152;29;20523;-78
2023/12/27 00:04:27;;;;;;;12.48;2.47;;;;;;;2.58;100.00;102104.16;4847405;29;20072;-79
2023/12/27 00:06:57;;;;;;;8.63;2.85;;;;;;;2.58;100.00;102108.47;4853100;29;20397;-79
2023/12/27 00:09:24;;;;;;;11.40;2.95;;;;;;;2.58;100.00;102104.16;4836813;29;20069;-79
2023/12/27 00:11:52;;;;;;;6.90;2.40;;;;;;;2.59;100.00;102116.38;4805012;29;20057;-79
2023/12/27 00:14:20;;;;;;;23.90;4.32;;;;;;;2.59;100.00;102120.66;4841430;29;20057;-78
2023/12/27 00:16:48;;;;;;;8.80;2.50;;;;;;;2.58;100.00;102104.16;4834362;29;20054;-78
2023/12/27 00:19:15;;;;;;;8.90;2.47;;;;;;;2.57;100.00;102110.19;4834115;29;20050;-79
2023/12/27 00:21:43;;;;;;;12.13;2.95;;;;;;;2.56;100.00;102124.00;4822144;29;20077;-79
2023/12/27 00:24:10;;;;;;;12.18;2.88;;;;;;;2.54;100.00;102123.03;4844451;29;20061;-78
2023/12/27 00:26:37;;;;;;;8.93;2.15;;;;;;;2.51;100.00;102128.97;4847270;29;20072;-78
2023/12/27 00:29:05;;;;;;;10.48;2.78;;;;;;;2.48;100.00;102127.88;4808318;29;20385;-78
2023/12/27 00:31:33;;;;;;;6.65;2.45;;;;;;;2.44;100.00;102123.28;4848184;29;20053;-78
2023/12/27 00:34:00;;;;;;;12.82;2.63;;;;;;;2.40;100.00;102127.47;4827671;29;20050;-78
2023/12/27 00:36:29;;;;;;;12.50;2.65;;;;;;;2.38;100.00;102130.75;4835610;29;20061;-78
2023/12/27 00:38:59;;;;;;;10.60;2.30;;;;;;;2.34;100.00;102125.41;4850388;29;20041;-77
2023/12/27 00:41:27;;;;;;;8.27;2.33;;;;;;;2.34;100.00;102129.69;4836688;29;20512;-78
2023/12/27 00:43:55;;;;;;;11.02;3.25;;;;;;;2.33;100.00;102135.72;4797384;29;20060;-79
2023/12/27 00:46:23;;;;;;;9.18;2.55;;;;;;;2.33;100.00;102140.91;4854926;29;20045;-77
2023/12/27 00:48:50;;;;;;;12.43;2.13;;;;;;;2.32;100.00;102139.09;4836515;29;20053;-78
2023/12/27 00:51:19;;;;;;;8.55;2.47;;;;;;;2.30;100.00;102135.53;4837667;29;20045;-77
2023/12/27 00:53:48;;;;;;;8.48;2.53;;;;;;;2.28;100.00;102138.03;4852180;29;20053;-78
2023/12/27 00:56:16;;;;;;;13.27;2.88;;;;;;;2.27;100.00;102136.25;4837761;29;20532;-79
2023/12/27 00:58:44;;;;;;;9.23;2.33;;;;;;;2.25;100.00;102129.16;4800542;29;20045;-78
2023/12/27 01:01:12;;;;;;;9.68;2.53;;;;;;;2.22;100.00;102134.19;4838264;29;20045;-78
2023/12/27 01:03:41;;;;;;;8.32;2.08;;;;;;;2.19;100.00;102137.50;4853053;29;20060;-79
2023/12/27 01:06:10;;;;;;;10.75;2.63;;;;;;;2.17;100.00;102141.72;4837499;29;20782;-79
2023/12/27 01:08:38;;;;;;;7.43;2.28;;;;;;;2.16;100.00;102142.53;4838301;29;20067;-79
2023/12/27 01:11:07;;;;;;;11.27;2.53;;;;;;;2.14;100.00;102150.25;4852286;29;20492;-79
2023/12/27 01:13:34;;;;;;;7.82;2.67;;;;;;;2.12;100.00;102141.47;4815415;29;20056;-78
2023/12/27 01:16:02;;;;;;;4.93;2.17;;;;;;;2.11;100.00;102143.97;4835540;29;20068;-78
2023/12/27 01:18:30;;;;;;;11.57;2.63;;;;;;;2.10;100.00;102145.69;4838101;29;20431;-78
2023/12/27 01:20:58;;;;;;;10.00;2.40;;;;;;;2.07;100.00;102139.41;4835859;29;20548;-79
2023/12/27 01:23:27;;;;;;;8.77;2.20;;;;;;;2.04;100.00;102149.59;4854338;29;20045;-79
2023/12/27 01:25:55;;;;;;;8.95;2.53;;;;;;;2.02;100.00;102151.22;4830911;29;20065;-78
2023/12/27 01:28:22;;;;;;;12.05;2.50;;;;;;;1.98;100.00;102146.66;4832616;29;20060;-78
2023/12/27 01:30:50;;;;;;;10.82;2.20;;;;;;;1.96;100.00;102154.38;4798604;29;20041;-78
2023/12/27 01:33:17;;;;;;;5.95;2.03;;;;;;;1.93;100.00;102157.69;4837026;29;20057;-79
2023/12/27 01:35:45;;;;;;;13.63;2.95;;;;;;;1.91;100.00;102151.50;4835291;29;20058;-79
2023/12/27 01:38:13;;;;;;;8.23;3.20;;;;;;;1.88;100.00;102148.72;4836361;29;20070;-79
2023/12/27 01:40:50;;;;;;;10.57;2.45;;;;;;;1.85;100.00;102153.75;4836763;29;20466;-78
2023/12/27 01:43:17;;;;;;;11.70;2.97;;;;;;;1.84;100.00;102156.25;4852427;29;20062;-78
2023/12/27 01:45:47;;;;;;;12.65;3.00;;;;;;;1.83;100.00;102160.53;4795965;29;20057;-78
2023/12/27 01:48:14;;;;;;;10.07;3.00;;;;;;;1.82;100.00;102157.88;4835938;29;20052;-79
2023/12/27 01:50:43;;;;;;;8.23;2.03;;;;;;;1.82;100.00;102157.88;4820732;29;20393;-78
2023/12/27 01:53:10;;;;;;;8.45;2.42;;;;;;;1.80;100.00;102159.47;4835524;29;20077;-78
2023/12/27 01:55:38;;;;;;;8.38;2.33;;;;;;;1.79;100.00;102161.16;4848026;29;20064;-77
2023/12/27 01:58:08;;;;;;;11.35;3.05;;;;;;;1.78;100.00;102177.56;4834198;29;20654;-79
2023/12/27 02:00:40;;;;;;;13.30;2.47;;;;;;;1.77;100.00;102170.56;4801699;29;20046;-78
2023/12/27 02:03:09;;;;;;;15.60;2.80;;;;;;;1.77;100.00;102175.75;4849694;29;20053;-77
2023/12/27 02:05:38;;;;;;;9.48;2.53;;;;;;;1.76;100.00;102168.78;4836308;29;20053;-79
2023/12/27 02:08:10;;;;;;;15.90;2.97;;;;;;;1.75;100.00;102174.78;4835236;29;20053;-78
2023/12/27 02:10:41;;;;;;;11.38;2.63;;;;;;;1.74;100.00;102162.59;4818797;29;20058;-78
2023/12/27 02:13:09;;;;;;;14.10;3.15;;;;;;;1.77;100.00;102164.47;4832383;29;20064;-77
2023/12/27 02:15:36;;;;;;;6.97;2.40;;;;;;;1.77;100.00;102167.97;4838477;29;20052;-79
2023/12/27 02:18:06;;;;;;;10.43;3.13;;;;;;;1.77;100.00;102170.56;4794233;29;20056;-79
2023/12/27 02:20:36;;;;;;;10.70;2.92;;;;;;;1.77;100.00;102165.38;4837914;29;20058;-79
2023/12/27 02:23:07;;;;;;;9.45;2.78;;;;;;;1.75;100.00;102172.19;4837279;29;20056;-78
2023/12/27 02:25:35;;;;;;;9.73;2.75;;;;;;;1.74;100.00;102168.69;4848287;29;20156;-78
2023/12/27 02:28:04;;;;;;;10.47;2.47;;;;;;;1.73;100.00;102168.59;4838557;29;20068;-79
2023/12/27 02:30:36;;;;;;;10.50;2.83;;;;;;;1.74;100.00;102160.00;4842458;29;20309;-78
2023/12/27 02:33:05;;;;;;;10.90;2.30;;;;;;;1.71;100.00;102158.09;4803398;29;20046;-78
2023/12/27 02:35:33;;;;;;;13.30;2.55;;;;;;;1.69;100.00;102158.81;4853105;29;20057;-78
2023/12/27 02:38:01;;;;;;;11.00;3.15;;;;;;;1.69;100.00;102162.31;4841532;29;20415;-78
2023/12/27 02:40:29;;;;;;;12.00;3.00;;;;;;;1.68;100.00;102151.81;4840207;29;20068;-78
2023/12/27 02:42:57;;;;;;;12.38;2.38;;;;;;;1.66;100.00;102150.84;4840223;29;20064;-79
2023/12/27 02:45:24;;;;;;;10.25;2.25;;;;;;;1.64;100.00;102155.94;4840011;29;20068;-79
2023/12/27 02:47:52;;;;;;;8.43;2.47;;;;;;;1.62;100.00;102152.34;4814237;29;20061;-79
2023/12/27 02:50:20;;;;;;;7.45;2.50;;;;;;;1.62;100.00;102151.47;4841981;29;20060;-79
2023/12/27 02:52:47;;;;;;;6.53;2.17;;;;;;;1.61;100.00;102144.44;4854660;29;20061;-79
2023/12/27 02:55:14;;;;;;;9.40;2.38;;;;;;;1.57;100.00;102138.19;4824932;29;20053;-79
2023/12/27 02:57:42;;;;;;;10.57;2.83;;;;;;;1.55;100.00;102143.31;4854756;29;20046;-80
2023/12/27 03:00:10;;;;;;;8.15;2.25;;;;;;;1.55;100.00;102147.56;4840623;29;20073;-78
2023/12/27 03:02:38;;;;;;;6.82;2.25;;;;;;;1.54;100.00;102144.09;4800867;29;20053;-79
2023/12/27 03:05:06;;;;;;;11.77;3.67;;;;;;;1.52;100.00;102137.91;4836251;29;20523;-78
2023/12/27 03:07:33;;;;;;;11.77;2.33;;;;;;;1.50;100.00;102139.50;4838730;29;20512;-77
2023/12/27 03:10:02;;;;;;;3.10;1.67;;;;;;;1.48;100.00;102127.25;4856916;29;20053;-78
2023/12/27 03:12:29;;;;;;;5.93;1.95;;;;;;;1.46;100.00;102126.25;4836293;29;20057;-79
2023/12/27 03:14:57;;;;;;;8.07;2.15;;;;;;;1.45;100.00;102120.16;4823550;29;20050;-78
2023/12/27 03:17:25;;;;;;;9.07;2.05;;;;;;;1.44;100.00;102120.09;4838992;29;20712;-79
2023/12/27 03:19:52;;;;;;;5.53;2.28;;;;;;;1.41;100.00;102118.16;4800039;29;20050;-79
2023/12/27 03:22:20;;;;;;;5.70;2.03;;;;;;;1.40;100.00;102105.09;4840922;29;20050;-79
2023/12/27 03:24:48;;;;;;;5.57;1.88;;;;;;;1.41;100.00;102104.31;4839115;29;20057;-79
2023/12/27 03:27:15;;;;;;;12.35;2.55;;;;;;;1.39;100.00;102101.59;4840489;29;20065;-78
2023/12/27 03:29:43;;;;;;;4.72;2.20;;;;;;;1.38;100.00;102094.63;4838347;29;20053;-79
2023/12/27 03:32:10;;;;;;;8.88;2.10;;;;;;;1.38;100.00;102091.13;4840695;29;20037;-79
2023/12/27 03:34:38;;;;;;;9.25;2.00;;;;;;;1.38;100.00;102096.31;4819175;29;20050;-78
2023/12/27 03:37:06;;;;;;;6.90;2.20;;;;;;;1.38;100.00;102099.81;4835241;29;20045;-78
2023/12/27 03:39:33;;;;;;;11.40;2.53;;;;;;;1.40;100.00;102092.09;4848967;29;20053;-78
2023/12/27 03:42:01;;;;;;;8.35;2.30;;;;;;;1.41;100.00;102092.19;4827764;29;20397;-78
2023/12/27 03:44:30;;;;;;;8.38;2.80;;;;;;;1.42;100.00;102088.81;4838621;29;20050;-77
2023/12/27 03:46:57;;;;;;;11.00;2.55;;;;;;;1.43;100.00;102090.59;4842825;29;20423;-78
2023/12/27 03:49:26;;;;;;;10.30;2.45;;;;;;;1.43;100.00;102090.59;4835697;29;20154;-79
2023/12/27 03:51:54;;;;;;;10.95;2.63;;;;;;;1.44;100.00;102097.59;4799592;29;20054;-78
2023/12/27 03:54:22;;;;;;;7.60;2.50;;;;;;;1.46;100.00;102102.88;4837679;29;20546;-78
2023/12/27 03:56:49;;;;;;;9.48;2.10;;;;;;;1.46;100.00;102098.56;4840139;29;20045;-79
2023/12/27 03:59:16;;;;;;;12.77;2.92;;;;;;;1.48;100.00;102109.94;4854223;29;20046;-79
2023/12/27 04:01:44;;;;;;;15.15;4.03;;;;;;;1.50;100.00;102110.06;4825542;29;20392;-78
2023/12/27 04:04:15;;;;;;;15.05;4.97;;;;;;;1.52;100.00;102111.03;4838439;29;20057;-78
2023/12/27 04:06:43;;;;;;;8.60;2.63;;;;;;;1.55;100.00;102106.00;4801175;29;20068;-78
2023/12/27 04:09:10;;;;;;;11.35;2.92;;;;;;;1.58;100.00;102100.13;4838316;29;20500;-78
2023/12/27 04:11:45;;;;;;;9.50;2.88;;;;;;;1.59;100.00;102097.63;4838684;29;20053;-79
2023/12/27 04:14:17;;;;;;;9.55;2.63;;;;;;;1.60;100.00;102095.91;4836033;29;20060;-78
2023/12/27 04:16:44;;;;;;;5.80;2.25;;;;;;;1.59;100.00;102104.50;4856069;29;20080;-79
2023/12/27 04:19:11;;;;;;;12.82;2.10;;;;;;;1.60;100.00;102107.19;4838436;29;20507;-79
2023/12/27 04:21:41;;;;;;;8.85;2.40;;;;;;;1.61;100.00;102103.81;4796514;29;20053;-79
2023/12/27 04:24:09;;;;;;;15.87;2.60;;;;;;;1.62;100.00;102110.78;4836252;29;20062;-79
2023/12/27 04:26:38;;;;;;;15.75;3.55;;;;;;;1.63;100.00;102102.19;4855601;29;20063;-78
2023/12/27 04:29:07;;;;;;;15.50;2.70;;;;;;;1.63;100.00;102083.09;4838784;29;20516;-77
2023/12/27 04:31:38;;;;;;;10.30;3.00;;;;;;;1.64;100.00;102084.88;4838417;29;20049;-78
2023/12/27 04:34:06;;;;;;;6.20;3.20;;;;;;;1.63;100.00;102081.41;4846077;29;20053;-78
2023/12/27 04:36:37;;;;;;;13.57;2.90;;;;;;;1.63;100.00;102077.91;4780287;29;20062;-78
2023/12/27 04:39:06;;;;;;;8.45;2.83;;;;;;;1.63;100.00;102083.09;4842613;29;20053;-78
2023/12/27 04:41:34;;;;;;;12.35;3.20;;;;;;;1.64;100.00;102071.88;4837438;29;20882;-78
2023/12/27 04:44:02;;;;;;;6.72;2.45;;;;;;;1.65;100.00;102076.28;4837280;29;20037;-79
2023/12/27 04:46:30;;;;;;;13.82;2.85;;;;;;;1.66;100.00;102080.66;4836915;29;20053;-79
2023/12/27 04:48:57;;;;;;;15.02;3.13;;;;;;;1.66;100.00;102083.28;4838785;29;20397;-79
2023/12/27 04:51:24;;;;;;;9.80;2.50;;;;;;;1.65;100.00;102077.19;4837272;29;20471;-79
2023/12/27 04:53:55;;;;;;;;;;;;;;;1.64;100.00;102071.88;4804043;29;20088;-78
2023/12/27 04:56:23;;;;;;;5.45;2.28;;;;;;;1.62;100.00;102077.00;4839722;29;19931;-78
2023/12/27 04:58:51;;;;;;;10.57;3.47;;;;;;;1.60;100.00;102076.00;4824427;29;20065;-78
2023/12/27 05:01:18;;;;;;;8.35;2.78;;;;;;;1.61;100.00;102076.91;4844401;29;20093;-78
2023/12/27 05:03:46;;;;;;;7.03;2.67;;;;;;;1.60;100.00;102072.53;4815950;29;20508;-79
2023/12/27 05:06:14;;;;;;;9.30;3.10;;;;;;;1.61;100.00;102066.50;4827994;29;20053;-78
2023/12/27 05:08:43;;;;;;;9.32;2.88;;;;;;;1.62;100.00;102076.09;4805910;29;20411;-78
2023/12/27 05:11:12;;;;;;;11.52;3.40;;;;;;;1.62;100.00;102073.50;4835450;29;20057;-79
2023/12/27 05:13:40;;;;;;;20.65;8.15;;;;;;;1.62;100.00;102058.81;4836251;29;20053;-78
2023/12/27 05:16:15;;;;;;;8.18;3.50;;;;;;;1.60;100.00;102059.53;4851852;29;20049;-77
2023/12/27 05:18:44;;;;;;;18.60;3.67;;;;;;;1.59;100.00;102058.66;4854269;29;20073;-77
2023/12/27 05:21:13;;;;;;;12.52;4.15;;;;;;;1.59;100.00;102055.13;4829195;29;20061;-78
2023/12/27 05:23:41;;;;;;;8.55;2.83;;;;;;;1.56;100.00;102056.75;4795136;29;20045;-77
2023/12/27 05:26:08;;;;;;;10.48;2.67;;;;;;;1.56;100.00;102056.75;4851063;29;20061;-78
2023/12/27 05:28:35;;;;;;;11.35;2.17;;;;;;;1.56;100.00;102054.13;4835688;29;20061;-78
2023/12/27 05:31:03;;;;;;;12.77;2.88;;;;;;;1.56;100.00;102058.44;4851477;29;20069;-79
2023/12/27 05:33:31;;;;;;;5.93;2.30;;;;;;;1.55;100.00;102054.97;4827394;29;20053;-79
2023/12/27 05:35:59;;;;;;;10.32;2.63;;;;;;;1.58;100.00;102059.44;4835932;29;20057;-78
2023/12/27 05:38:27;;;;;;;10.05;2.85;;;;;;;1.59;100.00;102060.31;4790706;29;21256;-79
2023/12/27 05:40:54;;;;;;;13.90;3.38;;;;;;;1.60;100.00;102056.94;4836733;29;20053;-78
2023/12/27 05:43:22;;;;;;;15.98;3.03;;;;;;;1.61;100.00;102059.63;4833661;29;20233;-79
2023/12/27 05:45:49;;;;;;;13.23;3.13;;;;;;;1.63;100.00;102057.13;4829707;29;20064;-78
2023/12/27 05:48:17;;;;;;;11.18;3.08;;;;;;;1.64;100.00;102049.38;4851932;29;20053;-78
2023/12/27 05:50:44;;;;;;;18.58;5.03;;;;;;;1.64;100.00;102044.19;4852947;29;20058;-78
2023/12/27 05:53:12;;;;;;;10.05;3.03;;;;;;;1.65;100.00;102039.91;4827615;29;20057;-78
2023/12/27 05:55:41;;;;;;;12.02;2.45;;;;;;;1.65;100.00;102035.59;4814740;29;20527;-78
2023/12/27 05:58:08;;;;;;;17.75;2.53;;;;;;;1.66;100.00;102039.09;4853842;29;20057;-79
2023/12/27 06:00:37;;;;;;;11.23;3.20;;;;;;;1.66;100.00;102033.91;4840282;29;20490;-78
2023/12/27 06:03:05;;;;;;;12.43;2.60;;;;;;;1.66;100.00;102046.88;4864886;29;20045;-79
2023/12/27 06:05:33;;;;;;;11.13;3.33;;;;;;;1.64;100.00;102044.19;4836564;29;20069;-78
2023/12/27 06:08:03;;;;;;;12.30;2.90;;;;;;;1.66;100.00;102052.09;4836040;29;20053;-78
2023/12/27 06:10:31;;;;;;;17.40;3.40;;;;;;;1.68;100.00;102045.28;4764086;29;20057;-77
2023/12/27 06:12:58;;;;;;;12.18;3.38;;;;;;;1.69;100.00;102044.47;4853402;29;20302;-78
2023/12/27 06:15:27;;;;;;;9.38;3.15;;;;;;;1.71;100.00;102045.47;4841865;29;20118;-77
2023/12/27 06:17:54;;;;;;;8.57;3.40;;;;;;;1.72;100.00;102036.84;4853310;29;20067;-79
2023/12/27 06:20:22;;;;;;;15.65;3.60;;;;;;;1.74;100.00;102027.47;4842705;29;20056;-78
2023/12/27 06:22:49;;;;;;;16.35;3.28;;;;;;;1.73;100.00;102023.06;4850509;29;20046;-78
2023/12/27 06:25:17;;;;;;;11.02;4.03;;;;;;;1.72;100.00;102011.78;4827741;29;20543;-80
2023/12/27 06:27:44;;;;;;;13.40;3.47;;;;;;;1.73;100.00;102023.06;4786525;29;20064;-79
2023/12/27 06:30:12;;;;;;;11.65;3.92;;;;;;;1.74;100.00;102025.75;4841800;29;20049;-78
2023/12/27 06:32:41;;;;;;;12.80;3.67;;;;;;;1.76;100.00;102018.06;4833221;29;20057;-79
2023/12/27 06:35:09;;;;;;;9.80;3.83;;;;;;;1.76;100.00;102028.44;4841016;29;20058;-79
2023/12/27 06:37:36;;;;;;;10.68;3.92;;;;;;;1.77;100.00;102019.81;4822511;29;20053;-79
2023/12/27 06:40:08;;;;;;;16.25;4.20;;;;;;;1.79;100.00;102026.00;4804429;29;20053;-78
2023/12/27 06:42:36;;;;;;;14.82;3.70;;;;;;;1.80;100.00;102020.00;4802123;29;20364;-78
2023/12/27 06:45:05;;;;;;;16.70;3.97;;;;;;;1.81;100.00;102020.91;4839902;29;20076;-79
2023/12/27 06:47:32;;;;;;;23.27;4.90;;;;;;;1.81;100.00;102031.28;4834180;29;20053;-78
2023/12/27 06:49:59;;;;;;;18.85;4.60;;;;;;;1.82;100.00;102013.19;4830035;29;20076;-78
2023/12/27 06:52:28;;;;;;;12.48;4.88;;;;;;;1.82;100.00;102018.41;4821327;29;20057;-79
2023/12/27 06:54:55;;;;;;;17.65;4.53;;;;;;;1.83;100.00;102012.38;4848695;29;20053;-79
2023/12/27 06:57:23;;;;;;;11.45;3.65;;;;;;;1.84;100.00;102005.50;4803196;29;20068;-80
2023/12/27 06:59:50;;;;;;;18.45;4.82;;;;;;;1.86;100.00;102003.88;4831863;29;20780;-77
2023/12/27 07:02:19;;;;;;;14.98;5.63;;;;;;;1.88;100.00;102002.25;4832403;29;20053;-78
2023/12/27 07:04:46;;;;;;;16.85;4.75;;;;;;;1.89;100.00;102004.94;4848137;29;20045;-78
2023/12/27 07:07:16;;;;;;;10.02;4.13;;;;;;;1.89;100.00;102010.16;4823665;29;20057;-79
2023/12/27 07:09:43;;;;;;;15.48;5.10;;;;;;;1.92;100.00;102014.63;4844872;29;20053;-78
2023/12/27 07:12:12;;;;;;;14.23;5.15;;;;;;;1.91;100.00;102005.94;4823670;29;20072;-78
2023/12/27 07:14:39;;;;;;;15.27;5.53;;;;;;;1.94;100.00;102000.00;4788110;29;20848;-78
2023/12/27 07:17:07;;;;;;;11.13;4.15;;;;;;;1.94;100.00;102007.78;4827899;29;20440;-78
2023/12/27 07:19:34;;;;;;;10.88;3.97;;;;;;;1.94;100.00;101993.09;4828573;29;20092;-79
2023/12/27 07:22:02;;;;;;;11.52;4.45;;;;;;;1.96;100.00;102006.16;4847957;29;20060;-79
2023/12/27 07:24:30;;;;;;;12.70;4.28;;;;;;;1.97;100.00;101994.06;4823067;29;20492;-79
2023/12/27 07:26:58;;;;;;;11.57;4.10;;;;;;;1.99;100.00;101993.34;4847793;29;20057;-79
2023/12/27 07:29:25;;;;;;;9.45;4.10;;;;;;;2.02;100.00;101993.50;4798126;29;20057;-79
2023/12/27 07:31:53;;;;;;;10.90;4.03;;;;;;;2.06;100.00;101986.78;4835916;29;20076;-79
2023/12/27 07:34:21;;;;;;;17.00;4.32;;;;;;;2.07;100.00;101984.28;4838390;29;20034;-78
2023/12/27 07:36:49;;;;;;;13.55;3.63;;;;;;;2.09;100.00;101985.25;4830698;29;20057;-79
2023/12/27 07:39:17;;;;;;;11.75;3.83;;;;;;;2.11;100.00;101985.34;4819886;29;20510;-78
2023/12/27 07:41:44;;;;;;;13.30;4.35;;;;;;;2.12;100.00;101979.34;4842518;29;20499;-78
2023/12/27 07:44:12;;;;;;;12.20;4.85;;;;;;;2.14;100.00;101972.53;4802849;29;20053;-78
2023/12/27 07:46:43;;;;;;;15.85;4.40;;;;;;;2.18;100.00;101976.19;4854035;29;20045;-78
2023/12/27 07:49:10;;;;;;;13.27;3.47;;;;;;;2.20;100.00;101974.56;4837289;29;20053;-78
2023/12/27 07:51:38;;;;;;;12.82;4.47;;;;;;;2.22;100.00;101979.03;4838315;29;20080;-78
2023/12/27 07:54:05;;;;;;;10.25;3.42;;;;;;;2.24;100.00;101964.41;4832148;29;20054;-78
2023/12/27 07:56:34;;;;;;;12.35;4.10;;;;;;;2.26;100.00;101965.38;4814846;29;20049;-78
2023/12/27 07:59:03;;;;;;;14.80;4.47;;;;;;;2.29;100.00;101955.16;4826854;29;20053;-78
2023/12/27 08:01:31;;;;;;;14.20;4.28;;;;;;;2.31;100.00;101957.84;4792916;29;20069;-77
2023/12/27 08:03:59;;;;;;;15.93;4.25;;;;;;;2.33;100.00;101940.63;4833978;29;20129;-78
2023/12/27 08:06:27;;;;;;;9.98;4.47;;;;;;;2.43;100.00;101952.41;4854837;29;20054;-80
2023/12/27 08:08:57;;;;;;;9.25;2.95;;;;;;;2.47;100.00;101946.56;4819130;29;20061;-78
2023/12/27 08:11:25;;;;;;;11.77;3.45;;;;;;;2.50;100.00;101941.53;4819147;29;20090;-77
2023/12/27 08:13:52;;;;;;;15.55;4.05;;;;;;;2.52;100.00;101945.97;4825275;29;20053;-77
2023/12/27 08:16:20;;;;;;;11.68;2.92;;;;;;;2.54;100.00;101944.34;4788764;29;20037;-78
2023/12/27 08:18:47;;;;;;;14.38;3.90;;;;;;;2.56;100.00;101944.44;4833937;29;20702;-77
2023/12/27 08:21:15;;;;;;;15.05;3.30;;;;;;;2.60;100.00;101950.72;4852915;29;20056;-78
2023/12/27 08:23:42;;;;;;;10.57;3.22;;;;;;;2.62;100.00;101946.47;4836891;29;21093;-78
2023/12/27 08:26:10;;;;;;;10.30;2.90;;;;;;;2.64;100.00;101947.44;4838181;29;20297;-79
2023/12/27 08:28:38;;;;;;;12.98;3.03;;;;;;;2.67;100.00;101940.72;4831248;29;20057;-78
2023/12/27 08:31:06;;;;;;;12.27;3.17;;;;;;;2.69;100.00;101928.66;4842244;29;20511;-79
2023/12/27 08:33:36;;;;;;;9.27;2.63;;;;;;;2.73;100.00;101932.31;4809593;29;20496;-78
2023/12/27 08:36:04;;;;;;;11.38;2.53;;;;;;;2.76;100.00;101940.31;4850255;29;20705;-78
2023/12/27 08:38:32;;;;;;;15.68;3.30;;;;;;;2.79;100.00;101932.63;4813565;29;20069;-78
2023/12/27 08:41:02;;;;;;;9.57;3.05;;;;;;;2.82;100.00;101919.78;4831296;29;20057;-78
2023/12/27 08:43:30;;;;;;;11.40;2.72;;;;;;;2.84;100.00;101928.56;4836189;29;20041;-77
2023/12/27 08:45:57;;;;;;;13.80;3.17;;;;;;;2.87;100.00;101923.53;4826216;29;20431;-78
2023/12/27 08:48:25;;;;;;;9.65;2.45;;;;;;;2.90;100.00;101921.06;4793359;29;20050;-77
2023/12/27 08:50:53;;;;;;;7.15;2.30;;;;;;;2.92;100.00;101923.75;4858203;29;20049;-77
2023/12/27 08:53:20;;;;;;;11.20;3.58;;;;;;;2.96;100.00;101922.22;4848657;29;20048;-77
2023/12/27 08:55:48;;;;;;;10.23;2.45;;;;;;;2.99;100.00;101925.88;4835317;29;20065;-78
2023/12/27 08:58:16;;;;;;;11.52;3.17;;;;;;;3.01;100.00;101919.03;4836339;29;20057;-77
2023/12/27 09:00:43;;;;;;;8.52;2.75;;;;;;;3.03;100.00;101917.38;4840648;29;20061;-78
2023/12/27 09:03:11;;;;;;;10.35;2.95;;;;;;;3.06;100.00;101912.34;4851503;29;20053;-78
2023/12/27 09:05:39;;;;;;;15.05;2.70;;;;;;;3.10;100.00;101919.50;4795190;29;20057;-78
2023/12/27 09:08:06;;;;;;;7.75;2.58;;;;;;;3.12;100.00;101912.66;4831046;29;20121;-77
2023/12/27 09:10:35;;;;;;;9.70;3.35;;;;;;;3.15;100.00;101906.69;4825722;29;20060;-78
2023/12/27 09:13:03;;;;;;;8.18;2.40;;;;;;;3.18;100.00;101909.47;4852632;29;20069;-78
2023/12/27 09:15:31;;;;;;;13.38;3.20;;;;;;;3.22;100.00;101918.34;4836210;29;20068;-77
2023/12/27 09:17:58;;;;;;;10.18;2.63;;;;;;;3.24;100.00;101912.38;4836107;29;20076;-78
2023/12/27 09:20:27;;;;;;;8.23;3.70;;;;;;;3.27;100.00;101903.81;4783869;29;20131;-78
2023/12/27 09:22:54;;;;;;;13.43;6.28;;;;;;;3.29;100.00;101905.69;4818891;29;20057;-77
2023/12/27 09:25:22;;;;;;;12.93;3.40;;;;;;;3.32;100.00;101895.41;4824832;29;20220;-78
2023/12/27 09:27:49;;;;;;;7.95;2.70;;;;;;;3.37;100.00;101902.56;4835014;29;20050;-78
2023/12/27 09:30:17;;;;;;;9.63;3.15;;;;;;;3.38;100.00;101894.81;4838135;29;21483;-78
2023/12/27 09:32:44;;;;;;;9.70;2.75;;;;;;;3.42;100.00;101891.56;4826824;29;20054;-78
2023/12/27 09:35:12;;;;;;;11.02;2.63;;;;;;;3.45;100.00;101890.81;4797818;29;20053;-78
2023/12/27 09:37:40;;;;;;;10.60;2.47;;;;;;;3.49;100.00;101887.53;4840172;29;20050;-78
2023/12/27 09:40:08;;;;;;;13.80;3.55;;;;;;;3.53;100.00;101883.34;4833356;29;20056;-78
2023/12/27 09:42:38;;;;;;;9.30;2.78;;;;;;;3.56;100.00;101875.69;4853615;29;20052;-78
2023/12/27 09:45:08;;;;;;;10.75;3.05;;;;;;;3.58;100.00;101868.84;4834042;29;20062;-78
2023/12/27 09:47:38;;;;;;;16.42;2.50;;;;;;;3.61;100.00;101872.50;4840546;29;20487;-77
2023/12/27 09:50:06;;;;;;;9.47;2.27;;;;;;;3.63;100.00;101863.03;4851025;29;20057;-77
2023/12/27 09:52:38;;;;;;;10.23;2.35;;;;;;;3.67;100.00;101866.69;4808531;29;20617;-78
2023/12/27 09:55:05;;;;;;;8.35;2.63;;;;;;;3.70;100.00;101865.13;4834250;29;20050;-77
2023/12/27 09:57:33;;;;;;;11.25;2.92;;;;;;;3.74;100.00;101858.31;4844804;29;20060;-78
2023/12/27 10:00:05;;;;;;;10.98;3.10;;;;;;;3.78;100.00;101849.81;4837589;29;20061;-77
2023/12/27 10:02:34;;;;;;;14.55;5.13;;;;;;;3.81;100.00;101844.72;4843229;29;20397;-79
2023/12/27 10:05:21;;;;;;;13.15;3.45;;;;;;;3.85;100.00;101845.78;4831803;29;20527;-77
2023/12/27 10:07:50;;;;;;;13.13;2.97;;;;;;;3.86;100.00;101832.81;4807412;29;20052;-77
2023/12/27 10:10:18;;;;;;;8.77;2.03;;;;;;;3.88;100.00;101822.47;4833811;29;20057;-77
2023/12/27 10:13:02;;;;;;;10.25;2.67;;;;;;;3.90;100.00;101813.00;4848501;29;20073;-77
2023/12/27 10:15:30;;;;;;;10.10;3.17;;;;;;;3.90;100.00;101808.66;4832649;29;20062;-77
2023/12/27 10:17:57;;;;;;;13.02;3.25;;;;;;;3.92;100.00;101800.91;4840786;29;20061;-77
2023/12/27 10:20:36;;;;;;;12.48;3.30;;;;;;;3.92;100.00;101789.59;4831214;29;20428;-78
2023/12/27 10:23:07;;;;;;;13.77;5.60;;;;;;;3.92;100.00;101795.69;4793338;29;20199;-77
2023/12/27 10:25:35;;;;;;;12.00;3.42;;;;;;;3.92;100.00;101780.06;4841808;29;20061;-78
2023/12/27 10:28:03;;;;;;;9.52;2.83;;;;;;;3.92;100.00;101767.00;4846728;29;20726;-77
2023/12/27 10:30:30;;;;;;;12.90;3.47;;;;;;;3.92;100.00;101764.41;4837919;29;20049;-78
2023/12/27 10:33:00;;;;;;;18.83;3.03;;;;;;;3.94;100.00;101767.09;4797135;29;20056;-78
2023/12/27 10:35:31;;;;;;;10.65;2.88;;;;;;;3.94;100.00;101746.22;4838573;29;20050;-78
2023/12/27 10:38:04;;;;;;;11.48;3.10;;;;;;;3.96;100.00;101731.53;4805311;29;20049;-79
2023/12/27 10:40:34;;;;;;;12.63;3.20;;;;;;;3.99;100.00;101731.66;4866862;29;20057;-78
2023/12/27 10:43:02;;;;;;;8.80;2.80;;;;;;;4.02;100.00;101730.06;4865251;29;20049;-78
2023/12/27 10:45:30;;;;;;;12.60;3.03;;;;;;;4.05;100.00;101719.78;4852098;29;20052;-77
2023/12/27 10:47:59;;;;;;;9.05;2.78;;;;;;;4.08;100.00;101704.28;4808057;29;20056;-77
2023/12/27 10:50:29;;;;;;;10.13;3.13;;;;;;;4.12;100.00;101694.88;4843365;29;20037;-77
2023/12/27 10:53:07;;;;;;;11.77;3.33;;;;;;;4.16;100.00;101686.34;4795442;29;20422;-77
2023/12/27 10:55:36;;;;;;;10.85;3.50;;;;;;;4.21;100.00;101678.69;4838510;29;20053;-77
2023/12/27 10:58:15;;;;;;;13.18;3.72;;;;;;;4.25;100.00;101670.16;4836184;29;20061;-77
2023/12/27 11:00:43;;;;;;;15.45;3.78;;;;;;;4.29;100.00;101661.63;4838060;29;20077;-78
2023/12/27 11:03:12;;;;;;;12.50;3.78;;;;;;;4.32;100.00;101656.56;4812070;29;20432;-76
2023/12/27 11:05:40;;;;;;;12.88;3.65;;;;;;;4.35;100.00;101643.66;4857113;29;20056;-77
2023/12/27 11:08:11;;;;;;;13.18;3.22;;;;;;;4.38;100.00;101628.09;4857676;29;20049;-78
2023/12/27 11:10:39;;;;;;;;;;;;;;;4.42;100.00;101614.38;4804349;29;20053;-76
2023/12/27 11:13:10;;;;;;;18.48;5.28;;;;;;;4.45;100.00;101613.59;4838486;29;19943;-76
2023/12/27 11:15:39;;;;;;;12.55;3.78;;;;;;;4.51;100.00;101618.19;4827570;29;20125;-76
2023/12/27 11:18:09;;;;;;;8.43;3.55;;;;;;;4.55;100.00;101613.13;4825354;29;20057;-79
2023/12/27 11:20:40;;;;;;;13.25;4.43;;;;;;;4.58;100.00;101615.88;4833859;29;20045;-76
2023/12/27 11:23:08;;;;;;;12.23;4.55;;;;;;;4.61;100.00;101596.81;4833243;29;20053;-76
2023/12/27 11:25:36;;;;;;;12.48;4.40;;;;;;;4.65;100.00;101580.44;4779779;29;20120;-76